Weather at Aérodrome d'Arcachon-La Teste-de-Buch

Public forecast

Using degrees Celsius for public forecast. Weather courtesy of forecast.io.

Closest aviation weather report (METAR) to Aérodrome d'Arcachon-La Teste-de-Buch

Closest report is Cazaux (BA 120) Air Base, 3.8 nm (7.1 km) S. Retrieved 2021/12/06 06:00 UTC (6 minutes ago):

LFBC 060600Z AUTO 31005KT 9999 // FEW018 SCT041 BKN058 08/05 Q1021

Closest aviation forecast (TAF) to Aérodrome d'Arcachon-La Teste-de-Buch

Forecast is more than 12 hours old.

Closest forecast is Cazaux (BA 120) Air Base, 3.8 nm (7.1 km) S. Retrieved 2021/12/03 12:00 UTC (3 days ago):

TAF TAF LFBC 031252Z 0312/0409 CNL